createdAt,value
2022-11-27T00:00:08.527Z,5.80
2022-11-27T00:01:08.504Z,5.80
2022-11-27T00:02:08.546Z,5.77
2022-11-27T00:03:08.577Z,5.83
2022-11-27T00:04:08.607Z,5.75
2022-11-27T00:05:08.467Z,5.78
2022-11-27T00:06:08.460Z,5.70
2022-11-27T00:07:08.446Z,5.69
2022-11-27T00:08:08.440Z,5.62
2022-11-27T00:09:08.447Z,5.59
2022-11-27T00:10:08.424Z,5.59
2022-11-27T00:11:08.400Z,5.62
2022-11-27T00:12:08.444Z,5.65
2022-11-27T00:13:08.378Z,5.60
2022-11-27T00:14:08.638Z,5.52
2022-11-27T00:15:08.400Z,5.52
2022-11-27T00:16:08.430Z,5.47
2022-11-27T00:17:11.117Z,5.52
2022-11-27T00:18:08.325Z,5.52
2022-11-27T00:19:08.360Z,5.51
2022-11-27T00:20:15.117Z,5.52
2022-11-27T00:21:08.304Z,5.45
2022-11-27T00:22:08.307Z,5.47
2022-11-27T00:23:08.273Z,5.45
2022-11-27T00:24:08.262Z,5.47
2022-11-27T00:25:08.249Z,5.42
2022-11-27T00:26:15.110Z,5.41
2022-11-27T00:27:08.246Z,5.33
2022-11-27T00:28:11.125Z,5.44
2022-11-27T00:29:11.104Z,5.27
2022-11-27T00:30:08.204Z,5.29
2022-11-27T00:31:08.256Z,5.32
2022-11-27T00:32:08.196Z,5.22
2022-11-27T00:33:15.105Z,5.30
2022-11-27T00:34:08.171Z,5.29
2022-11-27T00:35:09.114Z,5.26
2022-11-27T00:36:08.140Z,5.19
2022-11-27T00:37:08.153Z,5.17
2022-11-27T00:38:08.111Z,5.15
2022-11-27T00:39:08.133Z,5.15
2022-11-27T00:40:08.086Z,5.15
2022-11-27T00:41:14.616Z,5.17
2022-11-27T00:42:10.604Z,5.11
2022-11-27T00:43:08.061Z,5.02
2022-11-27T00:44:08.083Z,5.01
2022-11-27T00:45:10.618Z,5.08
2022-11-27T00:46:08.079Z,5.05
2022-11-27T00:47:08.082Z,5.04
2022-11-27T00:48:07.999Z,5.08
2022-11-27T00:49:09.088Z,5.02
2022-11-27T00:50:08.599Z,4.99
2022-11-27T00:51:07.976Z,4.90
2022-11-27T00:52:07.961Z,4.90
2022-11-27T00:53:07.956Z,4.90
2022-11-27T00:54:07.962Z,4.79
2022-11-27T00:55:07.938Z,4.84
2022-11-27T00:56:07.916Z,4.68
2022-11-27T00:57:07.914Z,4.77
2022-11-27T00:58:07.887Z,4.71
2022-11-27T00:59:07.917Z,4.75
2022-11-27T01:00:07.919Z,4.67
2022-11-27T01:01:07.858Z,4.62
2022-11-27T01:02:07.953Z,4.72
2022-11-27T01:03:07.926Z,4.69
2022-11-27T01:04:07.863Z,4.61
2022-11-27T01:05:07.813Z,4.64
2022-11-27T01:06:07.809Z,4.59
2022-11-27T01:07:07.792Z,4.54
2022-11-27T01:08:07.790Z,4.53
2022-11-27T01:09:07.774Z,4.47
2022-11-27T01:10:07.792Z,4.50
2022-11-27T01:11:07.757Z,4.49
2022-11-27T01:12:07.774Z,4.47
2022-11-27T01:13:10.621Z,4.43
2022-11-27T01:14:08.638Z,4.44
2022-11-27T01:15:07.722Z,4.36
2022-11-27T01:16:07.801Z,4.36
2022-11-27T01:17:07.712Z,4.34
2022-11-27T01:18:07.686Z,4.31
2022-11-27T01:19:07.669Z,4.31
2022-11-27T01:20:08.607Z,4.35
2022-11-27T01:21:07.641Z,4.34
2022-11-27T01:22:07.662Z,4.24
2022-11-27T01:23:07.639Z,4.26
2022-11-27T01:24:07.612Z,4.26
2022-11-27T01:25:26.772Z,4.32
2022-11-27T01:26:08.617Z,4.29
2022-11-27T01:27:08.107Z,4.31
2022-11-27T01:28:07.566Z,4.32
2022-11-27T01:29:07.556Z,4.18
2022-11-27T01:30:07.627Z,4.32
2022-11-27T01:31:07.607Z,4.29
2022-11-27T01:32:07.655Z,4.18
2022-11-27T01:33:07.520Z,4.18
2022-11-27T01:34:08.110Z,4.21
2022-11-27T01:35:07.494Z,4.24
2022-11-27T01:36:07.635Z,4.26
2022-11-27T01:37:07.470Z,4.20
2022-11-27T01:38:07.475Z,4.26
2022-11-27T01:39:08.516Z,4.20
2022-11-27T01:40:08.099Z,4.21
2022-11-27T01:41:08.107Z,4.16
2022-11-27T01:42:07.433Z,4.26
2022-11-27T01:43:07.418Z,4.20
2022-11-27T01:44:07.392Z,4.26
2022-11-27T01:45:07.405Z,4.21
2022-11-27T01:46:07.439Z,4.26
2022-11-27T01:47:07.386Z,4.21
2022-11-27T01:48:07.651Z,4.24
2022-11-27T01:49:07.341Z,4.16
2022-11-27T01:50:07.335Z,4.14
2022-11-27T01:51:07.311Z,4.18
2022-11-27T01:52:08.111Z,4.07
2022-11-27T01:53:07.291Z,4.07
2022-11-27T01:54:08.599Z,4.13
2022-11-27T01:55:07.292Z,4.20
2022-11-27T01:56:07.259Z,4.14
2022-11-27T01:57:07.257Z,4.16
2022-11-27T01:58:08.101Z,4.20
2022-11-27T01:59:07.224Z,4.06
2022-11-27T02:00:07.225Z,4.14
2022-11-27T02:01:07.216Z,4.20
2022-11-27T02:02:08.199Z,4.16
2022-11-27T02:03:07.240Z,4.18
2022-11-27T02:04:08.123Z,4.16
2022-11-27T02:05:07.183Z,4.17
2022-11-27T02:06:07.161Z,4.08
2022-11-27T02:07:07.137Z,4.00
2022-11-27T02:08:10.100Z,4.10
2022-11-27T02:09:07.111Z,4.16
2022-11-27T02:10:07.131Z,4.17
2022-11-27T02:11:07.107Z,4.16
2022-11-27T02:12:07.087Z,4.11
2022-11-27T02:13:07.080Z,4.04
2022-11-27T02:14:07.071Z,4.02
2022-11-27T02:15:13.600Z,4.02
2022-11-27T02:16:07.170Z,4.04
2022-11-27T02:17:07.053Z,3.98
2022-11-27T02:18:07.040Z,3.96
2022-11-27T02:19:07.015Z,3.99
2022-11-27T02:20:07.029Z,4.02
2022-11-27T02:21:07.013Z,3.95
2022-11-27T02:22:13.650Z,3.88
2022-11-27T02:23:07.002Z,3.95
2022-11-27T02:24:06.961Z,3.89
2022-11-27T02:25:06.952Z,3.86
2022-11-27T02:26:06.966Z,3.84
2022-11-27T02:27:06.923Z,3.81
2022-11-27T02:28:06.922Z,3.82
2022-11-27T02:29:06.920Z,3.75
2022-11-27T02:30:06.903Z,3.82
2022-11-27T02:31:06.972Z,3.89
2022-11-27T02:32:07.617Z,3.89
2022-11-27T02:33:06.862Z,3.86
2022-11-27T02:34:06.851Z,3.80
2022-11-27T02:35:06.912Z,3.77
2022-11-27T02:36:06.837Z,3.77
2022-11-27T02:37:06.808Z,3.88
2022-11-27T02:38:06.827Z,3.77
2022-11-27T02:39:06.792Z,3.80
2022-11-27T02:40:06.817Z,3.86
2022-11-27T02:41:06.776Z,3.75
2022-11-27T02:42:06.885Z,3.82
2022-11-27T02:43:06.747Z,3.82
2022-11-27T02:44:06.748Z,3.72
2022-11-27T02:45:06.752Z,3.74
2022-11-27T02:46:06.791Z,3.68
2022-11-27T02:47:06.710Z,3.60
2022-11-27T02:48:06.724Z,3.74
2022-11-27T02:49:06.683Z,3.64
2022-11-27T02:50:06.690Z,3.62
2022-11-27T02:51:06.684Z,3.70
2022-11-27T02:52:06.668Z,3.64
2022-11-27T02:53:07.593Z,3.57
2022-11-27T02:54:06.664Z,3.63
2022-11-27T02:55:06.623Z,3.59
2022-11-27T02:56:07.127Z,3.53
2022-11-27T02:57:09.211Z,3.53
2022-11-27T02:58:06.626Z,3.46
2022-11-27T02:59:06.577Z,3.45
2022-11-27T03:00:06.577Z,3.39
2022-11-27T03:01:06.636Z,3.46
2022-11-27T03:02:06.583Z,3.35
2022-11-27T03:03:06.651Z,3.41
2022-11-27T03:04:06.534Z,3.39
2022-11-27T03:05:09.097Z,3.35
2022-11-27T03:06:07.111Z,3.31
2022-11-27T03:07:06.508Z,3.34
2022-11-27T03:08:06.495Z,3.31
2022-11-27T03:09:06.477Z,3.19
2022-11-27T03:10:06.472Z,3.34
2022-11-27T03:11:06.469Z,3.22
2022-11-27T03:12:06.455Z,3.20
2022-11-27T03:13:06.579Z,3.26
2022-11-27T03:14:07.113Z,3.19
2022-11-27T03:15:07.100Z,3.23
2022-11-27T03:16:06.433Z,3.13
2022-11-27T03:17:06.411Z,3.17
2022-11-27T03:18:06.373Z,3.07
2022-11-27T03:19:06.366Z,3.05
2022-11-27T03:20:06.359Z,3.08
2022-11-27T03:21:06.335Z,3.10
2022-11-27T03:22:06.346Z,3.04
2022-11-27T03:23:06.331Z,2.99
2022-11-27T03:24:06.322Z,3.01
2022-11-27T03:25:07.367Z,3.13
2022-11-27T03:26:06.280Z,3.04
2022-11-27T03:27:06.270Z,3.07
2022-11-27T03:28:06.283Z,3.07
2022-11-27T03:29:06.372Z,3.05
2022-11-27T03:30:06.255Z,3.08
2022-11-27T03:31:06.357Z,3.05
2022-11-27T03:32:07.098Z,2.94
2022-11-27T03:33:06.231Z,2.95
2022-11-27T03:34:06.206Z,2.95
2022-11-27T03:35:06.179Z,2.92
2022-11-27T03:36:06.181Z,2.98
2022-11-27T03:37:07.092Z,2.98
2022-11-27T03:38:06.159Z,2.95
2022-11-27T03:39:06.162Z,2.98
2022-11-27T03:40:06.124Z,2.98
2022-11-27T03:41:06.123Z,2.95
2022-11-27T03:42:06.111Z,2.98
2022-11-27T03:43:06.600Z,3.01
2022-11-27T03:44:06.104Z,3.04
2022-11-27T03:45:06.202Z,2.94
2022-11-27T03:46:06.141Z,2.92
2022-11-27T03:47:06.671Z,3.02
2022-11-27T03:48:06.047Z,2.99
2022-11-27T03:49:06.029Z,2.99
2022-11-27T03:50:06.027Z,2.98
2022-11-27T03:51:06.024Z,3.02
2022-11-27T03:52:06.021Z,2.98
2022-11-27T03:53:05.999Z,2.99
2022-11-27T03:54:06.605Z,2.87
2022-11-27T03:55:05.967Z,2.86
2022-11-27T03:56:10.001Z,2.92
2022-11-27T03:57:05.971Z,2.92
2022-11-27T03:58:05.937Z,2.90
2022-11-27T03:59:05.920Z,2.90
2022-11-27T04:00:06.605Z,2.89
2022-11-27T04:01:06.040Z,2.86
2022-11-27T04:02:05.942Z,2.86
2022-11-27T04:03:05.879Z,2.84
2022-11-27T04:04:08.799Z,2.74
2022-11-27T04:05:05.862Z,2.89
2022-11-27T04:06:05.847Z,2.87
2022-11-27T04:07:05.851Z,2.87
2022-11-27T04:08:05.823Z,2.83
2022-11-27T04:09:05.822Z,2.89
2022-11-27T04:10:05.790Z,2.80
2022-11-27T04:11:08.602Z,2.81
2022-11-27T04:12:05.787Z,2.73
2022-11-27T04:13:05.785Z,2.79
2022-11-27T04:14:05.762Z,2.80
2022-11-27T04:15:05.742Z,2.77
2022-11-27T04:16:05.798Z,2.77
2022-11-27T04:17:05.872Z,2.71
2022-11-27T04:18:05.733Z,2.71
2022-11-27T04:19:05.703Z,2.74
2022-11-27T04:20:05.697Z,2.79
2022-11-27T04:21:05.690Z,2.73
2022-11-27T04:22:05.669Z,2.73
2022-11-27T04:23:05.659Z,2.73
2022-11-27T04:24:05.665Z,2.76
2022-11-27T04:25:05.635Z,2.71
2022-11-27T04:26:05.624Z,2.68
2022-11-27T04:27:05.630Z,2.69
2022-11-27T04:28:05.611Z,2.83
2022-11-27T04:29:05.613Z,2.66
2022-11-27T04:30:05.587Z,2.68
2022-11-27T04:31:05.620Z,2.77
2022-11-27T04:32:05.590Z,2.69
2022-11-27T04:33:05.655Z,2.69
2022-11-27T04:34:05.555Z,2.69
2022-11-27T04:35:05.523Z,2.69
2022-11-27T04:36:05.519Z,2.76
2022-11-27T04:37:05.507Z,2.77
2022-11-27T04:38:05.507Z,2.77
2022-11-27T04:39:05.474Z,2.79
2022-11-27T04:40:05.482Z,2.77
2022-11-27T04:41:05.630Z,2.77
2022-11-27T04:42:05.452Z,2.80
2022-11-27T04:43:05.435Z,2.80
2022-11-27T04:44:05.431Z,2.87
2022-11-27T04:45:08.093Z,2.80
2022-11-27T04:46:05.411Z,2.97
2022-11-27T04:47:05.742Z,2.97
2022-11-27T04:48:05.383Z,2.97
2022-11-27T04:49:05.496Z,2.98
2022-11-27T04:50:05.374Z,2.94
2022-11-27T04:51:05.343Z,2.98
2022-11-27T04:52:05.331Z,2.92
2022-11-27T04:53:05.319Z,2.90
2022-11-27T04:54:05.337Z,2.90
2022-11-27T04:55:05.309Z,2.99
2022-11-27T04:56:05.318Z,2.99
2022-11-27T04:57:05.283Z,2.95
2022-11-27T04:58:05.278Z,2.98
2022-11-27T04:59:05.275Z,2.92
2022-11-27T05:00:05.255Z,3.04
2022-11-27T05:01:05.314Z,3.10
2022-11-27T05:02:05.237Z,3.04
2022-11-27T05:03:05.306Z,3.01
2022-11-27T05:04:05.219Z,3.07
2022-11-27T05:05:05.297Z,3.16
2022-11-27T05:06:05.186Z,3.16
2022-11-27T05:07:05.167Z,3.20
2022-11-27T05:08:05.167Z,3.28
2022-11-27T05:09:05.157Z,3.23
2022-11-27T05:10:05.155Z,3.16
2022-11-27T05:11:05.121Z,3.17
2022-11-27T05:12:05.123Z,3.25
2022-11-27T05:13:06.095Z,3.28
2022-11-27T05:14:05.134Z,3.20
2022-11-27T05:15:05.084Z,3.20
2022-11-27T05:16:05.164Z,3.17
2022-11-27T05:17:05.056Z,3.19
2022-11-27T05:18:05.060Z,3.19
2022-11-27T05:19:05.032Z,3.25
2022-11-27T05:20:05.053Z,3.19
2022-11-27T05:21:05.124Z,3.30
2022-11-27T05:22:05.009Z,3.20
2022-11-27T05:23:04.990Z,3.25
2022-11-27T05:24:05.003Z,3.17
2022-11-27T05:25:04.988Z,3.13
2022-11-27T05:26:04.968Z,3.19
2022-11-27T05:27:04.941Z,3.05
2022-11-27T05:28:04.944Z,3.02
2022-11-27T05:29:04.924Z,3.05
2022-11-27T05:30:04.942Z,3.15
2022-11-27T05:31:04.996Z,3.19
2022-11-27T05:32:04.883Z,3.10
2022-11-27T05:33:04.882Z,3.17
2022-11-27T05:34:04.897Z,3.22
2022-11-27T05:35:04.873Z,3.22
2022-11-27T05:36:04.877Z,3.28
2022-11-27T05:37:04.998Z,3.22
2022-11-27T05:38:04.826Z,3.22
2022-11-27T05:39:04.816Z,3.22
2022-11-27T05:40:05.904Z,3.25
2022-11-27T05:41:11.619Z,3.19
2022-11-27T05:42:04.790Z,3.28
2022-11-27T05:43:04.805Z,3.16
2022-11-27T05:44:04.768Z,3.23
2022-11-27T05:45:04.738Z,3.22
2022-11-27T05:46:05.609Z,3.16
2022-11-27T05:47:04.775Z,3.19
2022-11-27T05:48:04.721Z,3.20
2022-11-27T05:49:04.722Z,3.19
2022-11-27T05:50:04.703Z,3.19
2022-11-27T05:51:04.677Z,3.23
2022-11-27T05:52:04.675Z,3.20
2022-11-27T05:53:04.786Z,3.20
2022-11-27T05:54:04.678Z,3.31
2022-11-27T05:55:04.641Z,3.28
2022-11-27T05:56:04.635Z,3.16
2022-11-27T05:57:04.618Z,3.19
2022-11-27T05:58:04.609Z,3.23
2022-11-27T05:59:04.598Z,3.28
2022-11-27T06:00:04.619Z,3.26
2022-11-27T06:01:04.560Z,3.25
2022-11-27T06:02:04.614Z,3.26
2022-11-27T06:03:04.670Z,3.16
2022-11-27T06:04:04.545Z,3.20
2022-11-27T06:05:04.575Z,3.22
2022-11-27T06:06:04.518Z,3.17
2022-11-27T06:07:04.517Z,3.20
2022-11-27T06:08:04.490Z,3.12
2022-11-27T06:09:09.310Z,3.12
2022-11-27T06:10:05.496Z,3.20
2022-11-27T06:11:05.105Z,3.30
2022-11-27T06:12:04.469Z,3.22
2022-11-27T06:13:04.442Z,3.19
2022-11-27T06:14:04.438Z,3.15
2022-11-27T06:15:04.446Z,3.22
2022-11-27T06:16:04.468Z,3.22
2022-11-27T06:17:04.400Z,3.23
2022-11-27T06:18:04.400Z,3.22
2022-11-27T06:19:04.371Z,3.19
2022-11-27T06:20:04.411Z,3.33
2022-11-27T06:21:04.353Z,3.23
2022-11-27T06:22:04.366Z,3.31
2022-11-27T06:23:04.337Z,3.33
2022-11-27T06:24:04.327Z,3.25
2022-11-27T06:25:04.414Z,3.35
2022-11-27T06:26:04.317Z,3.28
2022-11-27T06:27:04.305Z,3.41
2022-11-27T06:28:04.284Z,3.39
2022-11-27T06:29:04.293Z,3.35
2022-11-27T06:30:04.250Z,3.39
2022-11-27T06:31:04.300Z,3.39
2022-11-27T06:32:04.329Z,3.33
2022-11-27T06:33:04.247Z,3.39
2022-11-27T06:34:04.230Z,3.30
2022-11-27T06:35:04.219Z,3.42
2022-11-27T06:36:04.190Z,3.33
2022-11-27T06:37:05.402Z,3.44
2022-11-27T06:38:04.168Z,3.42
2022-11-27T06:39:04.167Z,3.45
2022-11-27T06:40:04.148Z,3.41
2022-11-27T06:41:11.210Z,3.28
2022-11-27T06:42:04.119Z,3.37
2022-11-27T06:43:04.149Z,3.37
2022-11-27T06:44:04.104Z,3.30
2022-11-27T06:45:04.097Z,3.26
2022-11-27T06:46:04.226Z,3.39
2022-11-27T06:47:04.078Z,3.26
2022-11-27T06:48:04.061Z,3.35
2022-11-27T06:49:04.080Z,3.42
2022-11-27T06:50:04.033Z,3.37
2022-11-27T06:51:04.037Z,3.35
2022-11-27T06:52:04.593Z,3.35
2022-11-27T06:53:04.017Z,3.46
2022-11-27T06:54:03.993Z,3.39
2022-11-27T06:55:04.119Z,3.42
2022-11-27T06:56:05.022Z,3.50
2022-11-27T06:57:04.070Z,3.42
2022-11-27T06:58:04.605Z,3.50
2022-11-27T06:59:03.961Z,3.41
2022-11-27T07:00:03.931Z,3.50
2022-11-27T07:01:18.631Z,3.53
2022-11-27T07:02:04.012Z,3.56
2022-11-27T07:03:03.896Z,3.56
2022-11-27T07:04:04.129Z,3.57
2022-11-27T07:05:03.874Z,3.50
2022-11-27T07:06:03.888Z,3.59
2022-11-27T07:07:03.851Z,3.45
2022-11-27T07:08:03.929Z,3.62
2022-11-27T07:09:03.837Z,3.64
2022-11-27T07:10:03.847Z,3.63
2022-11-27T07:11:03.807Z,3.56
2022-11-27T07:12:03.819Z,3.68
2022-11-27T07:13:03.919Z,3.63
2022-11-27T07:14:03.792Z,3.57
2022-11-27T07:15:04.498Z,3.62
2022-11-27T07:16:03.848Z,3.68
2022-11-27T07:17:03.742Z,3.60
2022-11-27T07:18:03.739Z,3.71
2022-11-27T07:19:03.741Z,3.74
2022-11-27T07:20:03.731Z,3.62
2022-11-27T07:21:03.709Z,3.63
2022-11-27T07:22:03.727Z,3.67
2022-11-27T07:23:04.740Z,3.68
2022-11-27T07:24:03.669Z,3.71
2022-11-27T07:25:03.658Z,3.71
2022-11-27T07:26:03.641Z,3.81
2022-11-27T07:27:04.149Z,3.84
2022-11-27T07:28:03.626Z,3.75
2022-11-27T07:29:03.751Z,3.89
2022-11-27T07:30:03.602Z,3.88
2022-11-27T07:31:03.598Z,3.81
2022-11-27T07:32:03.719Z,3.89
2022-11-27T07:33:03.601Z,3.89
2022-11-27T07:34:06.924Z,3.90
2022-11-27T07:35:04.629Z,3.89
2022-11-27T07:36:03.534Z,3.86
2022-11-27T07:37:03.548Z,3.96
2022-11-27T07:38:03.535Z,4.00
2022-11-27T07:39:03.515Z,3.96
2022-11-27T07:40:03.825Z,3.95
2022-11-27T07:41:04.102Z,3.99
2022-11-27T07:42:30.960Z,3.95
2022-11-27T07:43:04.459Z,3.95
2022-11-27T07:44:03.447Z,4.16
2022-11-27T07:45:03.552Z,4.21
2022-11-27T07:46:03.594Z,4.20
2022-11-27T07:47:03.431Z,4.17
2022-11-27T07:48:03.406Z,4.26
2022-11-27T07:49:03.414Z,4.29
2022-11-27T07:50:03.419Z,4.20
2022-11-27T07:51:03.379Z,4.29
2022-11-27T07:52:03.386Z,4.31
2022-11-27T07:53:03.356Z,4.35
2022-11-27T07:54:03.338Z,4.32
2022-11-27T07:55:03.325Z,4.28
2022-11-27T07:56:03.351Z,4.39
2022-11-27T07:57:06.129Z,4.35
2022-11-27T07:58:03.326Z,4.31
2022-11-27T07:59:03.288Z,4.39
2022-11-27T08:00:03.279Z,4.46
2022-11-27T08:01:03.434Z,4.49
2022-11-27T08:02:03.282Z,4.36
2022-11-27T08:03:03.260Z,4.42
2022-11-27T08:04:03.240Z,4.46
2022-11-27T08:05:06.933Z,4.46
2022-11-27T08:06:04.208Z,4.35
2022-11-27T08:07:03.203Z,4.36
2022-11-27T08:08:03.335Z,4.36
2022-11-27T08:09:03.197Z,4.36
2022-11-27T08:10:03.168Z,4.43
2022-11-27T08:11:06.115Z,4.43
2022-11-27T08:12:03.148Z,4.39
2022-11-27T08:13:03.139Z,4.42
2022-11-27T08:14:03.169Z,4.49
2022-11-27T08:15:03.110Z,4.36
2022-11-27T08:16:03.131Z,4.46
2022-11-27T08:17:03.192Z,4.54
2022-11-27T08:18:03.098Z,4.54
2022-11-27T08:19:03.109Z,4.47
2022-11-27T08:20:03.076Z,4.51
2022-11-27T08:21:03.053Z,4.53
2022-11-27T08:22:03.043Z,4.56
2022-11-27T08:23:03.377Z,4.49
2022-11-27T08:24:03.601Z,4.49
2022-11-27T08:25:03.046Z,4.47
2022-11-27T08:26:02.987Z,4.44
2022-11-27T08:27:02.984Z,4.50
2022-11-27T08:28:02.971Z,4.56
2022-11-27T08:29:02.968Z,4.50
2022-11-27T08:30:02.952Z,4.61
2022-11-27T08:31:02.952Z,4.67
2022-11-27T08:32:03.009Z,4.72
2022-11-27T08:33:03.038Z,4.74
2022-11-27T08:34:02.907Z,4.75
2022-11-27T08:35:02.928Z,4.77
2022-11-27T08:36:03.585Z,4.83
2022-11-27T08:37:02.911Z,4.79
2022-11-27T08:38:02.854Z,4.87
2022-11-27T08:39:05.597Z,4.94
2022-11-27T08:40:02.842Z,4.90
2022-11-27T08:41:02.860Z,4.96
2022-11-27T08:42:02.821Z,5.05
2022-11-27T08:43:02.822Z,4.90
2022-11-27T08:44:06.768Z,4.99
2022-11-27T08:45:03.786Z,4.91
2022-11-27T08:46:03.930Z,4.96
2022-11-27T08:47:02.802Z,4.90
2022-11-27T08:48:03.808Z,4.99
2022-11-27T08:49:02.881Z,5.05
2022-11-27T08:50:02.747Z,5.05
2022-11-27T08:51:02.734Z,5.05
2022-11-27T08:52:02.726Z,5.17
2022-11-27T08:53:02.709Z,5.20
2022-11-27T08:54:02.711Z,5.26
2022-11-27T08:55:02.683Z,5.29
2022-11-27T08:56:02.670Z,5.24
2022-11-27T08:57:02.655Z,5.44
2022-11-27T08:58:02.651Z,5.42
2022-11-27T08:59:02.652Z,5.48
2022-11-27T09:00:02.653Z,5.49
2022-11-27T09:01:02.692Z,5.58
2022-11-27T09:02:02.609Z,5.59
2022-11-27T09:03:02.594Z,5.62
2022-11-27T09:04:02.668Z,5.63
2022-11-27T09:05:02.691Z,5.77
2022-11-27T09:06:23.581Z,5.87
2022-11-27T09:07:02.542Z,5.90
2022-11-27T09:08:02.675Z,5.98
2022-11-27T09:09:02.623Z,5.98
2022-11-27T09:10:09.091Z,6.06
2022-11-27T09:11:02.531Z,6.03
2022-11-27T09:12:02.500Z,6.11
2022-11-27T09:13:02.481Z,6.06
2022-11-27T09:14:03.102Z,6.19
2022-11-27T09:15:02.457Z,6.17
2022-11-27T09:16:03.153Z,6.24
2022-11-27T09:17:02.687Z,6.28
2022-11-27T09:18:02.450Z,6.32
2022-11-27T09:19:03.090Z,6.30
2022-11-27T09:20:02.415Z,6.35
2022-11-27T09:21:02.518Z,6.30
2022-11-27T09:22:02.398Z,6.28
2022-11-27T09:23:08.920Z,6.28
2022-11-27T09:24:04.095Z,6.40
2022-11-27T09:25:02.353Z,6.43
2022-11-27T09:26:02.342Z,6.50
2022-11-27T09:27:05.094Z,6.48
2022-11-27T09:28:02.349Z,6.50
2022-11-27T09:29:02.330Z,6.48
2022-11-27T09:30:03.090Z,6.51
2022-11-27T09:31:02.299Z,6.53
2022-11-27T09:32:02.361Z,6.58
2022-11-27T09:33:02.278Z,6.64
2022-11-27T09:34:02.277Z,6.64
2022-11-27T09:35:02.298Z,6.65
2022-11-27T09:36:02.241Z,6.55
2022-11-27T09:37:02.343Z,6.69
2022-11-27T09:38:05.089Z,6.64
2022-11-27T09:39:03.119Z,6.72
2022-11-27T09:40:03.084Z,6.82
2022-11-27T09:41:05.087Z,6.83
2022-11-27T09:42:02.184Z,6.79
2022-11-27T09:43:03.091Z,6.90
2022-11-27T09:44:02.160Z,6.97
2022-11-27T09:45:02.659Z,6.91
2022-11-27T09:46:03.211Z,7.05
2022-11-27T09:47:03.113Z,6.96
2022-11-27T09:48:05.130Z,7.04
2022-11-27T09:49:08.607Z,7.09
2022-11-27T09:50:02.141Z,7.04
2022-11-27T09:51:02.144Z,7.08
2022-11-27T09:52:02.101Z,7.09
2022-11-27T09:53:02.170Z,7.12
2022-11-27T09:54:02.616Z,7.11
2022-11-27T09:55:02.170Z,7.09
2022-11-27T09:56:02.595Z,7.24
2022-11-27T09:57:02.600Z,7.15
2022-11-27T09:58:02.015Z,7.14
2022-11-27T09:59:02.013Z,7.27
2022-11-27T10:00:02.006Z,7.12
2022-11-27T10:01:02.023Z,7.21
2022-11-27T10:02:02.100Z,7.18
2022-11-27T10:03:02.131Z,7.24
2022-11-27T10:04:02.612Z,7.19
2022-11-27T10:05:17.834Z,7.30
2022-11-27T10:06:02.933Z,7.30
2022-11-27T10:07:04.609Z,7.27
2022-11-27T10:08:06.455Z,7.33
2022-11-27T10:09:03.007Z,7.26
2022-11-27T10:10:01.917Z,7.29
2022-11-27T10:11:01.871Z,7.32
2022-11-27T10:12:02.621Z,7.36
2022-11-27T10:13:01.854Z,7.36
2022-11-27T10:14:01.853Z,7.36
2022-11-27T10:15:01.846Z,7.33
2022-11-27T10:16:01.818Z,7.36
2022-11-27T10:17:01.929Z,7.37
2022-11-27T10:18:01.777Z,7.37
2022-11-27T10:19:01.786Z,7.37
2022-11-27T10:20:01.794Z,7.42
2022-11-27T10:21:01.806Z,7.37
2022-11-27T10:22:01.758Z,7.44
2022-11-27T10:23:01.723Z,7.52
2022-11-27T10:24:01.718Z,7.48
2022-11-27T10:25:01.838Z,7.50
2022-11-27T10:26:08.628Z,7.48
2022-11-27T10:27:01.718Z,7.54
2022-11-27T10:28:04.594Z,7.58
2022-11-27T10:29:04.612Z,7.55
2022-11-27T10:30:01.693Z,7.57
2022-11-27T10:31:01.630Z,7.77
2022-11-27T10:32:01.799Z,7.76
2022-11-27T10:33:01.723Z,7.74
2022-11-27T10:34:02.110Z,7.74
2022-11-27T10:35:01.637Z,7.76
2022-11-27T10:36:02.109Z,7.86
2022-11-27T10:37:01.593Z,7.81
2022-11-27T10:38:06.482Z,7.89
2022-11-27T10:39:03.112Z,7.94
2022-11-27T10:40:01.583Z,7.88
2022-11-27T10:41:07.808Z,7.96
2022-11-27T10:42:03.235Z,7.96
2022-11-27T10:43:02.107Z,7.96
2022-11-27T10:44:02.118Z,8.02
2022-11-27T10:45:01.518Z,7.96
2022-11-27T10:46:01.571Z,8.02
2022-11-27T10:47:01.479Z,7.96
2022-11-27T10:48:04.133Z,7.94
2022-11-27T10:49:01.444Z,8.00
2022-11-27T10:50:01.481Z,8.04
2022-11-27T10:51:01.438Z,8.12
2022-11-27T10:52:01.421Z,8.09
2022-11-27T10:53:02.117Z,7.94
2022-11-27T10:54:04.121Z,8.07
2022-11-27T10:55:02.118Z,8.02
2022-11-27T10:56:01.407Z,8.17
2022-11-27T10:57:01.649Z,8.12
2022-11-27T10:58:01.468Z,8.12
2022-11-27T10:59:02.130Z,8.12
2022-11-27T11:00:01.341Z,8.06
2022-11-27T11:01:08.258Z,8.14
2022-11-27T11:02:01.308Z,8.20
2022-11-27T11:03:01.352Z,8.10
2022-11-27T11:04:10.091Z,8.13
2022-11-27T11:05:24.530Z,8.18
2022-11-27T11:06:19.915Z,8.17
2022-11-27T11:07:02.262Z,8.14
2022-11-27T11:08:01.263Z,8.18
2022-11-27T11:09:01.660Z,8.24
2022-11-27T11:10:04.128Z,8.25
2022-11-27T11:11:01.197Z,8.12
2022-11-27T11:12:01.202Z,8.31
2022-11-27T11:13:01.181Z,8.34
2022-11-27T11:14:01.798Z,8.32
2022-11-27T11:15:04.108Z,8.36
2022-11-27T11:16:01.653Z,8.36
2022-11-27T11:17:01.222Z,8.37
2022-11-27T11:18:04.106Z,8.25
2022-11-27T11:19:01.167Z,8.28
2022-11-27T11:20:01.123Z,8.28
2022-11-27T11:21:01.088Z,8.32
2022-11-27T11:22:01.613Z,8.28
2022-11-27T11:23:03.610Z,8.34
2022-11-27T11:24:01.111Z,8.34
2022-11-27T11:25:01.079Z,8.32
2022-11-27T11:26:07.624Z,8.31
2022-11-27T11:27:15.620Z,8.36
2022-11-27T11:28:01.010Z,8.32
2022-11-27T11:29:00.996Z,8.43
2022-11-27T11:30:01.102Z,8.45
2022-11-27T11:31:00.999Z,8.49
2022-11-27T11:32:01.679Z,8.47
2022-11-27T11:33:00.968Z,8.50
2022-11-27T11:34:00.948Z,8.54
2022-11-27T11:35:01.624Z,8.49
2022-11-27T11:36:01.136Z,8.42
2022-11-27T11:37:00.909Z,8.54
2022-11-27T11:38:00.892Z,8.58
2022-11-27T11:39:00.907Z,8.58
2022-11-27T11:40:00.913Z,8.63
2022-11-27T11:41:00.882Z,8.61
2022-11-27T11:42:00.866Z,8.64
2022-11-27T11:43:00.844Z,8.64
2022-11-27T11:44:00.847Z,8.65
2022-11-27T11:45:00.815Z,8.70
2022-11-27T11:46:01.795Z,8.73
2022-11-27T11:47:00.802Z,8.70
2022-11-27T11:48:00.838Z,8.71
2022-11-27T11:49:01.613Z,8.73
2022-11-27T11:50:00.787Z,8.75
2022-11-27T11:51:01.605Z,8.65
2022-11-27T11:52:00.740Z,8.75
2022-11-27T11:53:00.737Z,8.79
2022-11-27T11:54:01.588Z,8.78
2022-11-27T11:55:07.601Z,8.73
2022-11-27T11:56:00.718Z,8.78
2022-11-27T11:57:01.622Z,8.76
2022-11-27T11:58:03.596Z,8.80
2022-11-27T11:59:00.680Z,8.85
2022-11-27T12:00:00.654Z,8.85
2022-11-27T12:01:28.049Z,8.82
2022-11-27T12:02:01.803Z,8.89
2022-11-27T12:03:00.668Z,8.91
2022-11-27T12:04:01.635Z,8.83
2022-11-27T12:05:00.678Z,8.96
2022-11-27T12:06:00.591Z,8.97
2022-11-27T12:07:00.572Z,8.98
2022-11-27T12:08:01.241Z,9.00
2022-11-27T12:09:00.586Z,8.96
2022-11-27T12:10:00.568Z,8.97
2022-11-27T12:11:00.548Z,8.93
2022-11-27T12:12:00.609Z,9.04
2022-11-27T12:13:03.098Z,9.01
2022-11-27T12:14:00.525Z,9.03
2022-11-27T12:15:01.108Z,9.04
2022-11-27T12:16:00.478Z,9.06
2022-11-27T12:17:00.586Z,9.04
2022-11-27T12:18:00.640Z,8.98
2022-11-27T12:19:00.454Z,9.03
2022-11-27T12:20:00.452Z,9.04
2022-11-27T12:21:00.435Z,9.04
2022-11-27T12:22:00.417Z,9.01
2022-11-27T12:23:03.108Z,9.06
2022-11-27T12:24:00.397Z,9.06
2022-11-27T12:25:00.438Z,9.04
2022-11-27T12:26:00.363Z,8.96
2022-11-27T12:27:01.092Z,9.10
2022-11-27T12:28:07.099Z,9.06
2022-11-27T12:29:01.099Z,8.98
2022-11-27T12:30:00.341Z,8.97
2022-11-27T12:31:00.630Z,8.96
2022-11-27T12:32:00.376Z,8.93
2022-11-27T12:33:00.294Z,9.04
2022-11-27T12:34:00.727Z,8.93
2022-11-27T12:35:00.292Z,8.98
2022-11-27T12:36:01.094Z,9.08
2022-11-27T12:37:00.257Z,9.08
2022-11-27T12:38:00.712Z,9.04
2022-11-27T12:39:01.150Z,9.08
2022-11-27T12:40:00.210Z,9.04
2022-11-27T12:41:00.232Z,9.06
2022-11-27T12:42:00.214Z,9.10
2022-11-27T12:43:15.104Z,9.08
2022-11-27T12:44:00.220Z,9.10
2022-11-27T12:45:03.100Z,9.12
2022-11-27T12:46:00.332Z,9.08
2022-11-27T12:47:00.645Z,9.08
2022-11-27T12:48:00.283Z,9.12
2022-11-27T12:49:00.120Z,9.04
2022-11-27T12:50:00.732Z,9.10
2022-11-27T12:51:00.606Z,9.06
2022-11-27T12:52:00.141Z,9.04
2022-11-27T12:53:02.603Z,9.04
2022-11-27T12:54:02.601Z,9.08
2022-11-27T12:55:02.605Z,9.10
2022-11-27T12:56:00.597Z,9.10
2022-11-27T12:57:00.641Z,9.04
2022-11-27T12:58:23.597Z,9.08
2022-11-27T12:59:02.611Z,9.10
2022-11-27T13:00:00.611Z,9.08
2022-11-27T13:01:00.685Z,9.10
2022-11-27T13:02:02.817Z,9.08
2022-11-27T13:03:00.750Z,9.16
2022-11-27T13:04:00.640Z,9.15
2022-11-27T13:05:02.712Z,9.17
2022-11-27T13:06:02.606Z,9.22
2022-11-27T13:07:02.601Z,9.22
2022-11-27T13:08:02.710Z,9.20
2022-11-27T13:09:01.632Z,9.16
2022-11-27T13:10:02.600Z,9.17
2022-11-27T13:11:23.600Z,9.19
2022-11-27T13:12:02.597Z,9.24
2022-11-27T13:12:59.868Z,9.26
2022-11-27T13:14:05.132Z,9.24
2022-11-27T13:15:02.603Z,9.26
2022-11-27T13:16:02.673Z,9.31
2022-11-27T13:17:02.699Z,9.19
2022-11-27T13:18:02.598Z,9.22